Terminal Aerodrome Forecast
Issued by NWS

Current Version | Previous Version | Text Only | Print | Product List | Glossary Off
Versions: 1 2 3 4 5 6 7 8 9 10 11 12 13

000
FTUS41 KRNK 092338
TAFLWB
TAF
KLWB 092338Z 1000/1024 25006KT P6SM BKN045
     FM100400 28010G19KT P6SM -SHSN BKN040
     FM100600 29011G21KT P6SM BKN030
     FM101300 29011G21KT P6SM BKN035
     FM102200 26008KT P6SM SCT100=

USA.gov is the U.S. government's official web portal to all federal, state and local government web resources and services.